sensor_id;sensor_type;location;lat;lon;timestamp;P1;durP1;ratioP1;P2;durP2;ratioP2
28772;SDS011;15925;51.222;5.678;2022-11-11T00:01:53;20.38;;;6.68;;
28772;SDS011;15925;51.222;5.678;2022-11-11T00:04:37;18.25;;;5.53;;
28772;SDS011;15925;51.222;5.678;2022-11-11T00:07:22;14.45;;;5.13;;
28772;SDS011;15925;51.222;5.678;2022-11-11T00:10:06;29.90;;;5.75;;
28772;SDS011;15925;51.222;5.678;2022-11-11T00:12:51;15.95;;;5.32;;
28772;SDS011;15925;51.222;5.678;2022-11-11T00:15:36;9.85;;;4.43;;
28772;SDS011;15925;51.222;5.678;2022-11-11T00:18:24;10.77;;;4.43;;
28772;SDS011;15925;51.222;5.678;2022-11-11T00:21:27;9.35;;;3.08;;
28772;SDS011;15925;51.222;5.678;2022-11-11T00:24:30;6.82;;;2.47;;
28772;SDS011;15925;51.222;5.678;2022-11-11T00:27:34;7.13;;;3.28;;
28772;SDS011;15925;51.222;5.678;2022-11-11T00:30:19;5.80;;;2.70;;
28772;SDS011;15925;51.222;5.678;2022-11-11T00:33:03;12.00;;;3.38;;
28772;SDS011;15925;51.222;5.678;2022-11-11T00:35:47;6.50;;;1.70;;
28772;SDS011;15925;51.222;5.678;2022-11-11T00:38:38;7.13;;;3.05;;
28772;SDS011;15925;51.222;5.678;2022-11-11T00:41:29;5.90;;;3.33;;
28772;SDS011;15925;51.222;5.678;2022-11-11T00:44:14;18.70;;;3.88;;
28772;SDS011;15925;51.222;5.678;2022-11-11T00:46:58;4.25;;;2.67;;
28772;SDS011;15925;51.222;5.678;2022-11-11T00:50:03;14.15;;;5.00;;
28772;SDS011;15925;51.222;5.678;2022-11-11T00:53:08;20.23;;;4.72;;
28772;SDS011;15925;51.222;5.678;2022-11-11T00:55:55;9.38;;;4.20;;
28772;SDS011;15925;51.222;5.678;2022-11-11T00:58:39;14.38;;;4.97;;
28772;SDS011;15925;51.222;5.678;2022-11-11T01:01:24;15.50;;;3.97;;
28772;SDS011;15925;51.222;5.678;2022-11-11T01:04:08;15.57;;;4.30;;
28772;SDS011;15925;51.222;5.678;2022-11-11T01:06:53;11.50;;;3.85;;
28772;SDS011;15925;51.222;5.678;2022-11-11T01:09:37;8.70;;;3.20;;
28772;SDS011;15925;51.222;5.678;2022-11-11T01:12:21;10.23;;;2.97;;
28772;SDS011;15925;51.222;5.678;2022-11-11T01:15:06;8.57;;;3.70;;
28772;SDS011;15925;51.222;5.678;2022-11-11T01:17:51;4.10;;;1.85;;
28772;SDS011;15925;51.222;5.678;2022-11-11T01:20:35;7.70;;;1.83;;
28772;SDS011;15925;51.222;5.678;2022-11-11T01:23:21;6.45;;;1.88;;
28772;SDS011;15925;51.222;5.678;2022-11-11T01:26:06;9.75;;;3.20;;
28772;SDS011;15925;51.222;5.678;2022-11-11T01:29:02;3.40;;;2.10;;
28772;SDS011;15925;51.222;5.678;2022-11-11T01:31:47;11.90;;;2.67;;
28772;SDS011;15925;51.222;5.678;2022-11-11T01:34:32;8.88;;;2.08;;
28772;SDS011;15925;51.222;5.678;2022-11-11T01:37:16;8.93;;;2.80;;
28772;SDS011;15925;51.222;5.678;2022-11-11T01:40:00;8.93;;;2.42;;
28772;SDS011;15925;51.222;5.678;2022-11-11T01:42:49;2.40;;;1.83;;
28772;SDS011;15925;51.222;5.678;2022-11-11T01:48:33;3.95;;;1.67;;
28772;SDS011;15925;51.222;5.678;2022-11-11T01:51:42;2.67;;;1.60;;
28772;SDS011;15925;51.222;5.678;2022-11-11T01:54:52;4.13;;;2.10;;
28772;SDS011;15925;51.222;5.678;2022-11-11T02:00:25;2.25;;;1.20;;
28772;SDS011;15925;51.222;5.678;2022-11-11T02:03:10;4.15;;;1.85;;
28772;SDS011;15925;51.222;5.678;2022-11-11T02:05:57;2.53;;;1.08;;
28772;SDS011;15925;51.222;5.678;2022-11-11T02:08:42;2.95;;;1.58;;
28772;SDS011;15925;51.222;5.678;2022-11-11T02:11:27;2.97;;;1.52;;
28772;SDS011;15925;51.222;5.678;2022-11-11T02:14:33;3.35;;;1.88;;
28772;SDS011;15925;51.222;5.678;2022-11-11T02:17:31;4.55;;;1.88;;
28772;SDS011;15925;51.222;5.678;2022-11-11T02:20:20;4.18;;;1.55;;
28772;SDS011;15925;51.222;5.678;2022-11-11T02:23:13;4.50;;;2.42;;
28772;SDS011;15925;51.222;5.678;2022-11-11T02:26:04;4.88;;;1.90;;
28772;SDS011;15925;51.222;5.678;2022-11-11T02:28:52;2.97;;;1.40;;
28772;SDS011;15925;51.222;5.678;2022-11-11T02:31:38;5.25;;;1.83;;
28772;SDS011;15925;51.222;5.678;2022-11-11T02:34:32;5.13;;;2.17;;
28772;SDS011;15925;51.222;5.678;2022-11-11T02:37:19;4.20;;;1.95;;
28772;SDS011;15925;51.222;5.678;2022-11-11T02:40:07;6.22;;;2.15;;
28772;SDS011;15925;51.222;5.678;2022-11-11T02:42:55;10.38;;;3.00;;
28772;SDS011;15925;51.222;5.678;2022-11-11T02:45:39;11.70;;;4.28;;
28772;SDS011;15925;51.222;5.678;2022-11-11T02:48:23;15.82;;;4.65;;
28772;SDS011;15925;51.222;5.678;2022-11-11T02:51:08;11.00;;;4.18;;
28772;SDS011;15925;51.222;5.678;2022-11-11T02:53:53;8.30;;;3.55;;
28772;SDS011;15925;51.222;5.678;2022-11-11T02:56:41;13.02;;;4.38;;
28772;SDS011;15925;51.222;5.678;2022-11-11T02:59:44;10.27;;;4.50;;
28772;SDS011;15925;51.222;5.678;2022-11-11T03:02:28;8.18;;;4.60;;
28772;SDS011;15925;51.222;5.678;2022-11-11T03:05:12;10.98;;;4.72;;
28772;SDS011;15925;51.222;5.678;2022-11-11T03:07:57;13.13;;;4.80;;
28772;SDS011;15925;51.222;5.678;2022-11-11T03:10:41;15.77;;;4.47;;
28772;SDS011;15925;51.222;5.678;2022-11-11T03:13:26;8.93;;;3.90;;
28772;SDS011;15925;51.222;5.678;2022-11-11T03:16:10;8.27;;;3.40;;
28772;SDS011;15925;51.222;5.678;2022-11-11T03:19:14;6.88;;;3.13;;
28772;SDS011;15925;51.222;5.678;2022-11-11T03:21:59;13.05;;;4.32;;
28772;SDS011;15925;51.222;5.678;2022-11-11T03:24:44;11.15;;;2.75;;
28772;SDS011;15925;51.222;5.678;2022-11-11T03:27:47;9.15;;;2.17;;
28772;SDS011;15925;51.222;5.678;2022-11-11T03:30:31;11.90;;;2.63;;
28772;SDS011;15925;51.222;5.678;2022-11-11T03:33:16;11.00;;;1.80;;
28772;SDS011;15925;51.222;5.678;2022-11-11T03:36:01;11.98;;;2.58;;
28772;SDS011;15925;51.222;5.678;2022-11-11T03:38:45;5.15;;;1.35;;
28772;SDS011;15925;51.222;5.678;2022-11-11T03:41:30;6.90;;;2.75;;
28772;SDS011;15925;51.222;5.678;2022-11-11T03:44:15;9.07;;;1.80;;
28772;SDS011;15925;51.222;5.678;2022-11-11T03:46:59;8.02;;;1.80;;
28772;SDS011;15925;51.222;5.678;2022-11-11T03:49:43;7.03;;;2.25;;
28772;SDS011;15925;51.222;5.678;2022-11-11T03:52:28;5.38;;;1.92;;
28772;SDS011;15925;51.222;5.678;2022-11-11T03:55:12;2.45;;;2.10;;
28772;SDS011;15925;51.222;5.678;2022-11-11T03:57:57;5.45;;;2.25;;
28772;SDS011;15925;51.222;5.678;2022-11-11T04:00:41;5.32;;;1.58;;
28772;SDS011;15925;51.222;5.678;2022-11-11T04:03:26;2.95;;;1.70;;
28772;SDS011;15925;51.222;5.678;2022-11-11T04:06:29;3.92;;;1.50;;
28772;SDS011;15925;51.222;5.678;2022-11-11T04:09:32;12.60;;;1.88;;
28772;SDS011;15925;51.222;5.678;2022-11-11T04:12:35;2.20;;;1.27;;
28772;SDS011;15925;51.222;5.678;2022-11-11T04:15:39;3.00;;;1.70;;
28772;SDS011;15925;51.222;5.678;2022-11-11T04:18:42;3.05;;;1.58;;
28772;SDS011;15925;51.222;5.678;2022-11-11T04:21:45;3.05;;;1.17;;
28772;SDS011;15925;51.222;5.678;2022-11-11T04:24:30;5.32;;;1.98;;
28772;SDS011;15925;51.222;5.678;2022-11-11T04:27:33;3.67;;;1.52;;
28772;SDS011;15925;51.222;5.678;2022-11-11T04:30:17;2.88;;;0.98;;
28772;SDS011;15925;51.222;5.678;2022-11-11T04:33:01;7.15;;;1.77;;
28772;SDS011;15925;51.222;5.678;2022-11-11T04:35:49;3.72;;;1.48;;
28772;SDS011;15925;51.222;5.678;2022-11-11T04:38:33;8.10;;;2.67;;
28772;SDS011;15925;51.222;5.678;2022-11-11T04:41:36;10.60;;;2.45;;
28772;SDS011;15925;51.222;5.678;2022-11-11T04:44:21;4.78;;;2.15;;
28772;SDS011;15925;51.222;5.678;2022-11-11T04:47:24;12.13;;;1.85;;
28772;SDS011;15925;51.222;5.678;2022-11-11T04:50:08;4.38;;;2.05;;
28772;SDS011;15925;51.222;5.678;2022-11-11T04:52:53;7.13;;;2.25;;
28772;SDS011;15925;51.222;5.678;2022-11-11T04:55:41;8.30;;;2.10;;
28772;SDS011;15925;51.222;5.678;2022-11-11T04:58:45;3.10;;;1.10;;
28772;SDS011;15925;51.222;5.678;2022-11-11T05:01:30;2.22;;;1.55;;
28772;SDS011;15925;51.222;5.678;2022-11-11T05:04:33;4.47;;;2.22;;
28772;SDS011;15925;51.222;5.678;2022-11-11T05:07:17;3.28;;;1.65;;
28772;SDS011;15925;51.222;5.678;2022-11-11T05:10:20;6.28;;;1.63;;
28772;SDS011;15925;51.222;5.678;2022-11-11T05:13:05;4.32;;;2.58;;
28772;SDS011;15925;51.222;5.678;2022-11-11T05:16:19;3.00;;;1.95;;
28772;SDS011;15925;51.222;5.678;2022-11-11T05:19:25;4.03;;;1.65;;
28772;SDS011;15925;51.222;5.678;2022-11-11T05:22:32;2.25;;;1.55;;
28772;SDS011;15925;51.222;5.678;2022-11-11T05:25:18;2.97;;;1.77;;
28772;SDS011;15925;51.222;5.678;2022-11-11T05:28:09;4.05;;;1.35;;
28772;SDS011;15925;51.222;5.678;2022-11-11T05:30:53;6.55;;;2.00;;
28772;SDS011;15925;51.222;5.678;2022-11-11T05:33:37;4.05;;;1.45;;
28772;SDS011;15925;51.222;5.678;2022-11-11T05:36:22;3.80;;;1.77;;
28772;SDS011;15925;51.222;5.678;2022-11-11T05:39:06;8.98;;;1.70;;
28772;SDS011;15925;51.222;5.678;2022-11-11T05:41:50;3.92;;;1.10;;
28772;SDS011;15925;51.222;5.678;2022-11-11T05:44:34;11.60;;;1.23;;
28772;SDS011;15925;51.222;5.678;2022-11-11T05:47:19;4.18;;;1.35;;
28772;SDS011;15925;51.222;5.678;2022-11-11T05:50:04;2.97;;;1.88;;
28772;SDS011;15925;51.222;5.678;2022-11-11T05:52:49;2.17;;;0.90;;
28772;SDS011;15925;51.222;5.678;2022-11-11T05:55:33;1.80;;;1.15;;
28772;SDS011;15925;51.222;5.678;2022-11-11T05:58:18;1.65;;;0.90;;
28772;SDS011;15925;51.222;5.678;2022-11-11T06:01:03;3.65;;;1.23;;
28772;SDS011;15925;51.222;5.678;2022-11-11T06:03:47;1.50;;;1.23;;
28772;SDS011;15925;51.222;5.678;2022-11-11T06:06:32;2.60;;;1.42;;
28772;SDS011;15925;51.222;5.678;2022-11-11T06:09:17;2.15;;;1.48;;
28772;SDS011;15925;51.222;5.678;2022-11-11T06:12:01;3.55;;;1.05;;
28772;SDS011;15925;51.222;5.678;2022-11-11T06:14:46;1.92;;;1.00;;
28772;SDS011;15925;51.222;5.678;2022-11-11T06:17:30;1.77;;;1.17;;
28772;SDS011;15925;51.222;5.678;2022-11-11T06:20:16;2.05;;;1.13;;
28772;SDS011;15925;51.222;5.678;2022-11-11T06:23:01;5.45;;;0.90;;
28772;SDS011;15925;51.222;5.678;2022-11-11T06:25:46;2.25;;;1.35;;
28772;SDS011;15925;51.222;5.678;2022-11-11T06:28:51;3.33;;;1.10;;
28772;SDS011;15925;51.222;5.678;2022-11-11T06:31:36;3.13;;;1.67;;
28772;SDS011;15925;51.222;5.678;2022-11-11T06:34:21;6.40;;;1.50;;
28772;SDS011;15925;51.222;5.678;2022-11-11T06:37:06;2.10;;;1.25;;
28772;SDS011;15925;51.222;5.678;2022-11-11T06:39:50;2.88;;;1.60;;
28772;SDS011;15925;51.222;5.678;2022-11-11T06:42:35;2.47;;;1.50;;
28772;SDS011;15925;51.222;5.678;2022-11-11T06:45:20;2.83;;;1.00;;
28772;SDS011;15925;51.222;5.678;2022-11-11T06:48:05;1.30;;;0.70;;
28772;SDS011;15925;51.222;5.678;2022-11-11T06:50:50;3.42;;;1.17;;
28772;SDS011;15925;51.222;5.678;2022-11-11T06:53:34;1.60;;;0.88;;
28772;SDS011;15925;51.222;5.678;2022-11-11T06:56:19;3.90;;;1.48;;
28772;SDS011;15925;51.222;5.678;2022-11-11T06:59:04;4.03;;;1.20;;
28772;SDS011;15925;51.222;5.678;2022-11-11T07:01:49;2.47;;;1.33;;
28772;SDS011;15925;51.222;5.678;2022-11-11T07:04:34;2.55;;;1.70;;
28772;SDS011;15925;51.222;5.678;2022-11-11T07:07:18;3.20;;;1.25;;
28772;SDS011;15925;51.222;5.678;2022-11-11T07:10:03;2.38;;;0.70;;
28772;SDS011;15925;51.222;5.678;2022-11-11T07:12:49;3.13;;;1.70;;
28772;SDS011;15925;51.222;5.678;2022-11-11T07:15:35;5.22;;;1.20;;
28772;SDS011;15925;51.222;5.678;2022-11-11T07:18:20;2.40;;;1.25;;
28772;SDS011;15925;51.222;5.678;2022-11-11T07:21:04;3.00;;;1.05;;
28772;SDS011;15925;51.222;5.678;2022-11-11T07:23:49;2.60;;;1.38;;
28772;SDS011;15925;51.222;5.678;2022-11-11T07:26:33;8.13;;;1.13;;
28772;SDS011;15925;51.222;5.678;2022-11-11T07:29:17;1.25;;;0.75;;
28772;SDS011;15925;51.222;5.678;2022-11-11T07:32:02;1.55;;;0.93;;
28772;SDS011;15925;51.222;5.678;2022-11-11T07:34:47;1.15;;;0.98;;
28772;SDS011;15925;51.222;5.678;2022-11-11T07:37:34;1.70;;;0.80;;
28772;SDS011;15925;51.222;5.678;2022-11-11T07:40:19;1.67;;;1.50;;
28772;SDS011;15925;51.222;5.678;2022-11-11T07:43:04;2.17;;;1.00;;
28772;SDS011;15925;51.222;5.678;2022-11-11T07:45:48;4.10;;;0.95;;
28772;SDS011;15925;51.222;5.678;2022-11-11T07:48:33;2.35;;;1.85;;
28772;SDS011;15925;51.222;5.678;2022-11-11T07:51:17;5.85;;;1.38;;
28772;SDS011;15925;51.222;5.678;2022-11-11T07:54:01;2.65;;;1.40;;
28772;SDS011;15925;51.222;5.678;2022-11-11T07:56:46;2.50;;;1.17;;
28772;SDS011;15925;51.222;5.678;2022-11-11T07:59:30;2.75;;;1.48;;
28772;SDS011;15925;51.222;5.678;2022-11-11T08:02:14;18.15;;;1.08;;
28772;SDS011;15925;51.222;5.678;2022-11-11T08:04:59;2.03;;;0.80;;
28772;SDS011;15925;51.222;5.678;2022-11-11T08:07:43;1.70;;;0.82;;
28772;SDS011;15925;51.222;5.678;2022-11-11T08:10:28;4.80;;;1.33;;
28772;SDS011;15925;51.222;5.678;2022-11-11T08:13:12;3.80;;;1.52;;
28772;SDS011;15925;51.222;5.678;2022-11-11T08:16:15;3.58;;;1.10;;
28772;SDS011;15925;51.222;5.678;2022-11-11T08:19:00;2.95;;;1.33;;
28772;SDS011;15925;51.222;5.678;2022-11-11T08:21:45;0.98;;;0.88;;
28772;SDS011;15925;51.222;5.678;2022-11-11T08:24:29;2.95;;;1.48;;
28772;SDS011;15925;51.222;5.678;2022-11-11T08:27:13;3.95;;;1.95;;
28772;SDS011;15925;51.222;5.678;2022-11-11T08:29:58;5.40;;;1.75;;
28772;SDS011;15925;51.222;5.678;2022-11-11T08:32:42;4.10;;;1.90;;
28772;SDS011;15925;51.222;5.678;2022-11-11T08:35:26;3.15;;;1.73;;
28772;SDS011;15925;51.222;5.678;2022-11-11T08:38:11;3.42;;;1.17;;
28772;SDS011;15925;51.222;5.678;2022-11-11T08:40:59;2.10;;;1.08;;
28772;SDS011;15925;51.222;5.678;2022-11-11T08:43:44;8.93;;;1.52;;
28772;SDS011;15925;51.222;5.678;2022-11-11T08:46:29;9.90;;;1.33;;
28772;SDS011;15925;51.222;5.678;2022-11-11T08:49:13;8.95;;;1.80;;
28772;SDS011;15925;51.222;5.678;2022-11-11T08:51:58;10.50;;;1.70;;
28772;SDS011;15925;51.222;5.678;2022-11-11T08:54:42;1.42;;;1.13;;
28772;SDS011;15925;51.222;5.678;2022-11-11T08:57:26;10.00;;;1.85;;
28772;SDS011;15925;51.222;5.678;2022-11-11T09:00:11;13.38;;;1.48;;
28772;SDS011;15925;51.222;5.678;2022-11-11T09:03:02;4.35;;;1.33;;
28772;SDS011;15925;51.222;5.678;2022-11-11T09:05:48;1.52;;;0.73;;
28772;SDS011;15925;51.222;5.678;2022-11-11T09:08:32;7.68;;;1.33;;
28772;SDS011;15925;51.222;5.678;2022-11-11T09:11:17;3.35;;;1.92;;
28772;SDS011;15925;51.222;5.678;2022-11-11T09:14:01;5.47;;;2.10;;
28772;SDS011;15925;51.222;5.678;2022-11-11T09:16:45;10.07;;;2.20;;
28772;SDS011;15925;51.222;5.678;2022-11-11T09:19:30;2.50;;;1.80;;
28772;SDS011;15925;51.222;5.678;2022-11-11T09:22:15;2.40;;;1.52;;
28772;SDS011;15925;51.222;5.678;2022-11-11T09:24:59;4.82;;;1.83;;
28772;SDS011;15925;51.222;5.678;2022-11-11T09:27:52;3.38;;;1.73;;
28772;SDS011;15925;51.222;5.678;2022-11-11T09:30:39;11.80;;;1.65;;
28772;SDS011;15925;51.222;5.678;2022-11-11T09:33:24;6.78;;;1.85;;
28772;SDS011;15925;51.222;5.678;2022-11-11T09:36:08;1.38;;;1.05;;
28772;SDS011;15925;51.222;5.678;2022-11-11T09:38:52;3.35;;;1.30;;
28772;SDS011;15925;51.222;5.678;2022-11-11T09:41:47;11.32;;;1.25;;
28772;SDS011;15925;51.222;5.678;2022-11-11T09:45:05;3.15;;;1.63;;
28772;SDS011;15925;51.222;5.678;2022-11-11T09:51:47;4.05;;;1.35;;
28772;SDS011;15925;51.222;5.678;2022-11-11T09:54:44;4.38;;;1.65;;
28772;SDS011;15925;51.222;5.678;2022-11-11T09:57:38;2.70;;;1.42;;
28772;SDS011;15925;51.222;5.678;2022-11-11T10:00:45;5.72;;;1.48;;
28772;SDS011;15925;51.222;5.678;2022-11-11T10:03:37;2.53;;;0.93;;
28772;SDS011;15925;51.222;5.678;2022-11-11T10:06:32;8.93;;;1.20;;
28772;SDS011;15925;51.222;5.678;2022-11-11T10:12:41;2.38;;;1.25;;
28772;SDS011;15925;51.222;5.678;2022-11-11T10:15:34;1.38;;;0.77;;
28772;SDS011;15925;51.222;5.678;2022-11-11T10:21:40;5.85;;;0.82;;
28772;SDS011;15925;51.222;5.678;2022-11-11T10:24:37;1.77;;;0.65;;
28772;SDS011;15925;51.222;5.678;2022-11-11T10:27:24;2.38;;;0.63;;
28772;SDS011;15925;51.222;5.678;2022-11-11T10:30:13;1.67;;;0.77;;
28772;SDS011;15925;51.222;5.678;2022-11-11T10:33:09;4.22;;;0.75;;
28772;SDS011;15925;51.222;5.678;2022-11-11T10:35:59;2.00;;;0.70;;
28772;SDS011;15925;51.222;5.678;2022-11-11T10:44:31;9.02;;;0.70;;
28772;SDS011;15925;51.222;5.678;2022-11-11T10:56:34;1.25;;;0.40;;
28772;SDS011;15925;51.222;5.678;2022-11-11T10:59:34;1.83;;;0.77;;
28772;SDS011;15925;51.222;5.678;2022-11-11T11:08:28;2.05;;;0.75;;
28772;SDS011;15925;51.222;5.678;2022-11-11T11:11:19;2.72;;;0.50;;
28772;SDS011;15925;51.222;5.678;2022-11-11T11:14:23;0.50;;;0.50;;
28772;SDS011;15925;51.222;5.678;2022-11-11T11:17:14;1.25;;;0.40;;
28772;SDS011;15925;51.222;5.678;2022-11-11T11:20:07;1.35;;;0.50;;
28772;SDS011;15925;51.222;5.678;2022-11-11T11:22:59;3.50;;;0.50;;
28772;SDS011;15925;51.222;5.678;2022-11-11T11:25:50;1.75;;;0.65;;
28772;SDS011;15925;51.222;5.678;2022-11-11T11:28:57;2.75;;;0.57;;
28772;SDS011;15925;51.222;5.678;2022-11-11T11:31:42;0.95;;;0.50;;
28772;SDS011;15925;51.222;5.678;2022-11-11T11:34:43;0.75;;;0.20;;
28772;SDS011;15925;51.222;5.678;2022-11-11T11:37:35;12.00;;;0.88;;
28772;SDS011;15925;51.222;5.678;2022-11-11T11:43:38;2.17;;;0.30;;
28772;SDS011;15925;51.222;5.678;2022-11-11T11:46:26;2.85;;;0.60;;
28772;SDS011;15925;51.222;5.678;2022-11-11T11:49:18;4.97;;;0.52;;
28772;SDS011;15925;51.222;5.678;2022-11-11T11:52:31;1.95;;;0.50;;
28772;SDS011;15925;51.222;5.678;2022-11-11T11:56:11;0.82;;;0.40;;
28772;SDS011;15925;51.222;5.678;2022-11-11T12:07:44;1.38;;;0.60;;
28772;SDS011;15925;51.222;5.678;2022-11-11T12:16:42;1.65;;;0.50;;
28772;SDS011;15925;51.222;5.678;2022-11-11T12:23:02;0.52;;;0.20;;
28772;SDS011;15925;51.222;5.678;2022-11-11T12:31:43;6.22;;;0.80;;
28772;SDS011;15925;51.222;5.678;2022-11-11T12:52:15;0.20;;;0.20;;
28772;SDS011;15925;51.222;5.678;2022-11-11T12:58:23;3.38;;;0.55;;
28772;SDS011;15925;51.222;5.678;2022-11-11T13:04:40;2.63;;;0.63;;
28772;SDS011;15925;51.222;5.678;2022-11-11T13:10:58;2.15;;;0.82;;
28772;SDS011;15925;51.222;5.678;2022-11-11T13:13:54;4.47;;;0.55;;
28772;SDS011;15925;51.222;5.678;2022-11-11T13:16:41;3.60;;;0.20;;
28772;SDS011;15925;51.222;5.678;2022-11-11T13:19:35;3.85;;;0.45;;
28772;SDS011;15925;51.222;5.678;2022-11-11T13:22:49;1.65;;;0.50;;
28772;SDS011;15925;51.222;5.678;2022-11-11T13:25:33;2.55;;;0.73;;
28772;SDS011;15925;51.222;5.678;2022-11-11T13:28:27;7.60;;;0.40;;
28772;SDS011;15925;51.222;5.678;2022-11-11T13:31:45;4.13;;;0.43;;
28772;SDS011;15925;51.222;5.678;2022-11-11T13:34:24;3.35;;;0.80;;
28772;SDS011;15925;51.222;5.678;2022-11-11T13:37:17;0.52;;;0.43;;
28772;SDS011;15925;51.222;5.678;2022-11-11T13:40:17;3.63;;;0.75;;
28772;SDS011;15925;51.222;5.678;2022-11-11T13:43:17;0.25;;;0.20;;
28772;SDS011;15925;51.222;5.678;2022-11-11T13:46:06;4.75;;;0.47;;
28772;SDS011;15925;51.222;5.678;2022-11-11T13:49:22;0.65;;;0.30;;
28772;SDS011;15925;51.222;5.678;2022-11-11T13:52:35;3.25;;;1.08;;
28772;SDS011;15925;51.222;5.678;2022-11-11T13:55:26;7.85;;;1.60;;
28772;SDS011;15925;51.222;5.678;2022-11-11T13:58:37;4.50;;;1.48;;
28772;SDS011;15925;51.222;5.678;2022-11-11T14:01:28;5.50;;;0.90;;
28772;SDS011;15925;51.222;5.678;2022-11-11T14:04:18;0.88;;;0.60;;
28772;SDS011;15925;51.222;5.678;2022-11-11T14:07:02;3.00;;;0.90;;
28772;SDS011;15925;51.222;5.678;2022-11-11T14:09:53;1.70;;;0.80;;
28772;SDS011;15925;51.222;5.678;2022-11-11T14:12:41;0.55;;;0.55;;
28772;SDS011;15925;51.222;5.678;2022-11-11T14:18:32;1.08;;;0.65;;
28772;SDS011;15925;51.222;5.678;2022-11-11T14:24:33;3.92;;;0.75;;
28772;SDS011;15925;51.222;5.678;2022-11-11T14:27:29;5.43;;;0.70;;
28772;SDS011;15925;51.222;5.678;2022-11-11T14:30:28;2.35;;;0.55;;
28772;SDS011;15925;51.222;5.678;2022-11-11T14:36:27;2.58;;;0.73;;
28772;SDS011;15925;51.222;5.678;2022-11-11T14:42:03;3.85;;;1.30;;
28772;SDS011;15925;51.222;5.678;2022-11-11T14:57:43;1.80;;;0.73;;
28772;SDS011;15925;51.222;5.678;2022-11-11T15:00:32;2.10;;;1.00;;
28772;SDS011;15925;51.222;5.678;2022-11-11T15:06:36;5.07;;;1.38;;
28772;SDS011;15925;51.222;5.678;2022-11-11T15:15:38;7.55;;;1.92;;
28772;SDS011;15925;51.222;5.678;2022-11-11T15:21:33;2.70;;;1.05;;
28772;SDS011;15925;51.222;5.678;2022-11-11T15:27:22;5.78;;;1.38;;
28772;SDS011;15925;51.222;5.678;2022-11-11T15:30:20;7.10;;;1.58;;
28772;SDS011;15925;51.222;5.678;2022-11-11T15:33:17;10.35;;;1.00;;
28772;SDS011;15925;51.222;5.678;2022-11-11T15:39:06;14.25;;;2.72;;
28772;SDS011;15925;51.222;5.678;2022-11-11T15:41:56;5.00;;;1.38;;
28772;SDS011;15925;51.222;5.678;2022-11-11T15:44:41;5.20;;;0.90;;
28772;SDS011;15925;51.222;5.678;2022-11-11T15:47:25;16.70;;;1.38;;
28772;SDS011;15925;51.222;5.678;2022-11-11T15:53:26;9.02;;;1.90;;
28772;SDS011;15925;51.222;5.678;2022-11-11T15:56:25;7.63;;;1.42;;
28772;SDS011;15925;51.222;5.678;2022-11-11T15:59:21;12.93;;;2.28;;
28772;SDS011;15925;51.222;5.678;2022-11-11T16:02:09;1.77;;;0.90;;
28772;SDS011;15925;51.222;5.678;2022-11-11T16:05:06;5.88;;;0.88;;
28772;SDS011;15925;51.222;5.678;2022-11-11T16:08:03;1.02;;;0.70;;
28772;SDS011;15925;51.222;5.678;2022-11-11T16:10:53;2.03;;;1.00;;
28772;SDS011;15925;51.222;5.678;2022-11-11T16:13:46;4.78;;;0.70;;
28772;SDS011;15925;51.222;5.678;2022-11-11T16:16:47;3.45;;;1.45;;
28772;SDS011;15925;51.222;5.678;2022-11-11T16:19:33;1.17;;;0.82;;
28772;SDS011;15925;51.222;5.678;2022-11-11T16:22:27;0.65;;;0.63;;
28772;SDS011;15925;51.222;5.678;2022-11-11T16:25:16;34.95;;;1.42;;
28772;SDS011;15925;51.222;5.678;2022-11-11T16:28:03;2.70;;;0.88;;
28772;SDS011;15925;51.222;5.678;2022-11-11T16:30:48;3.55;;;1.40;;
28772;SDS011;15925;51.222;5.678;2022-11-11T16:33:33;10.63;;;1.30;;
28772;SDS011;15925;51.222;5.678;2022-11-11T16:36:18;12.05;;;1.23;;
28772;SDS011;15925;51.222;5.678;2022-11-11T16:39:12;4.75;;;1.40;;
28772;SDS011;15925;51.222;5.678;2022-11-11T16:41:58;2.53;;;0.60;;
28772;SDS011;15925;51.222;5.678;2022-11-11T16:44:57;1.23;;;0.65;;
28772;SDS011;15925;51.222;5.678;2022-11-11T16:47:48;0.70;;;0.50;;
28772;SDS011;15925;51.222;5.678;2022-11-11T16:50:33;1.02;;;0.80;;
28772;SDS011;15925;51.222;5.678;2022-11-11T16:53:37;4.68;;;0.75;;
28772;SDS011;15925;51.222;5.678;2022-11-11T16:56:26;7.60;;;1.02;;
28772;SDS011;15925;51.222;5.678;2022-11-11T16:59:15;0.73;;;0.45;;
28772;SDS011;15925;51.222;5.678;2022-11-11T17:02:13;0.82;;;0.43;;
28772;SDS011;15925;51.222;5.678;2022-11-11T17:05:01;0.63;;;0.43;;
28772;SDS011;15925;51.222;5.678;2022-11-11T17:07:46;3.22;;;1.40;;
28772;SDS011;15925;51.222;5.678;2022-11-11T17:10:31;5.60;;;1.13;;
28772;SDS011;15925;51.222;5.678;2022-11-11T17:13:21;0.90;;;0.60;;
28772;SDS011;15925;51.222;5.678;2022-11-11T17:16:08;1.10;;;0.57;;
28772;SDS011;15925;51.222;5.678;2022-11-11T17:18:55;1.20;;;0.80;;
28772;SDS011;15925;51.222;5.678;2022-11-11T17:21:42;1.35;;;0.88;;
28772;SDS011;15925;51.222;5.678;2022-11-11T17:24:28;1.55;;;0.65;;
28772;SDS011;15925;51.222;5.678;2022-11-11T17:27:13;7.30;;;1.45;;
28772;SDS011;15925;51.222;5.678;2022-11-11T17:29:57;0.95;;;0.63;;
28772;SDS011;15925;51.222;5.678;2022-11-11T17:32:42;0.63;;;0.63;;
28772;SDS011;15925;51.222;5.678;2022-11-11T17:35:26;1.92;;;0.47;;
28772;SDS011;15925;51.222;5.678;2022-11-11T17:38:11;1.67;;;0.80;;
28772;SDS011;15925;51.222;5.678;2022-11-11T17:40:56;4.22;;;1.30;;
28772;SDS011;15925;51.222;5.678;2022-11-11T17:43:40;2.05;;;1.00;;
28772;SDS011;15925;51.222;5.678;2022-11-11T17:46:25;2.65;;;0.82;;
28772;SDS011;15925;51.222;5.678;2022-11-11T17:49:09;2.10;;;0.95;;
28772;SDS011;15925;51.222;5.678;2022-11-11T17:51:53;3.15;;;1.60;;
28772;SDS011;15925;51.222;5.678;2022-11-11T17:54:38;2.50;;;1.42;;
28772;SDS011;15925;51.222;5.678;2022-11-11T17:57:22;6.10;;;1.38;;
28772;SDS011;15925;51.222;5.678;2022-11-11T18:00:06;1.83;;;1.20;;
28772;SDS011;15925;51.222;5.678;2022-11-11T18:02:51;3.38;;;1.70;;
28772;SDS011;15925;51.222;5.678;2022-11-11T18:05:36;4.25;;;1.60;;
28772;SDS011;15925;51.222;5.678;2022-11-11T18:08:21;1.35;;;1.02;;
28772;SDS011;15925;51.222;5.678;2022-11-11T18:11:06;3.90;;;1.67;;
28772;SDS011;15925;51.222;5.678;2022-11-11T18:13:51;2.22;;;1.60;;
28772;SDS011;15925;51.222;5.678;2022-11-11T18:16:36;5.47;;;2.92;;
28772;SDS011;15925;51.222;5.678;2022-11-11T18:19:22;3.55;;;1.67;;
28772;SDS011;15925;51.222;5.678;2022-11-11T18:22:06;2.78;;;1.45;;
28772;SDS011;15925;51.222;5.678;2022-11-11T18:24:51;1.85;;;1.13;;
28772;SDS011;15925;51.222;5.678;2022-11-11T18:27:35;1.15;;;0.80;;
28772;SDS011;15925;51.222;5.678;2022-11-11T18:30:20;1.00;;;0.55;;
28772;SDS011;15925;51.222;5.678;2022-11-11T18:33:04;2.35;;;1.10;;
28772;SDS011;15925;51.222;5.678;2022-11-11T18:35:49;1.48;;;1.00;;
28772;SDS011;15925;51.222;5.678;2022-11-11T18:38:34;1.48;;;0.65;;
28772;SDS011;15925;51.222;5.678;2022-11-11T18:41:19;0.88;;;0.52;;
28772;SDS011;15925;51.222;5.678;2022-11-11T18:44:03;1.20;;;0.77;;
28772;SDS011;15925;51.222;5.678;2022-11-11T18:46:48;0.85;;;0.65;;
28772;SDS011;15925;51.222;5.678;2022-11-11T18:49:32;1.05;;;0.50;;
28772;SDS011;15925;51.222;5.678;2022-11-11T18:52:16;1.60;;;0.57;;
28772;SDS011;15925;51.222;5.678;2022-11-11T18:55:00;0.40;;;0.40;;
28772;SDS011;15925;51.222;5.678;2022-11-11T18:57:45;2.40;;;0.70;;
28772;SDS011;15925;51.222;5.678;2022-11-11T19:00:29;5.28;;;1.25;;
28772;SDS011;15925;51.222;5.678;2022-11-11T19:03:17;1.77;;;0.90;;
28772;SDS011;15925;51.222;5.678;2022-11-11T19:06:03;5.15;;;0.85;;
28772;SDS011;15925;51.222;5.678;2022-11-11T19:08:56;1.88;;;1.13;;
28772;SDS011;15925;51.222;5.678;2022-11-11T19:11:45;1.92;;;0.88;;
28772;SDS011;15925;51.222;5.678;2022-11-11T19:14:30;1.95;;;1.08;;
28772;SDS011;15925;51.222;5.678;2022-11-11T19:17:14;1.48;;;1.08;;